Time;durP1;ratioP1;P1;durP2;ratioP2;P2;SDS_P1;SDS_P2;PMS_P1;PMS_P2;Temp;Humidity;BMP_temperature;BMP_pressure;BME280_temperature;BME280_humidity;BME280_pressure;Samples;Min_cycle;Max_cycle;Signal;HPM_P1;HPM_P2
2023/01/24 00:01:32;;;;;;;6.05;3.80;;;;;;;4.59;100.00;62468.81;4991573;28;20224;-81
2023/01/24 00:04:00;;;;;;;5.40;4.90;;;;;;;4.54;100.00;62465.69;4994750;28;20204;-81
2023/01/24 00:06:26;;;;;;;7.47;5.43;;;;;;;4.37;100.00;62448.69;4996015;28;20224;-79
2023/01/24 00:08:55;;;;;;;7.65;4.90;;;;;;;4.47;100.00;62455.94;4990641;28;20204;-79
2023/01/24 00:11:22;;;;;;;7.57;5.28;;;;;;;4.52;100.00;62464.13;4990912;28;20246;-80
2023/01/24 00:13:49;;;;;;;6.40;4.90;;;;;;;4.49;100.00;62458.00;4991861;28;20505;-79
2023/01/24 00:16:19;;;;;;;6.78;4.93;;;;;;;4.55;100.00;62469.25;4991409;28;20295;-79
2023/01/24 00:18:47;;;;;;;7.40;4.63;;;;;;;4.36;100.00;62447.16;4990313;28;20287;-79
2023/01/24 00:21:15;;;;;;;5.20;3.92;;;;;;;4.24;100.00;62432.81;4991779;28;20304;-81
2023/01/24 00:23:44;;;;;;;6.35;4.72;;;;;;;4.31;100.00;62440.03;4991676;28;20577;-79
2023/01/24 00:26:14;;;;;;;6.82;4.40;;;;;;;4.22;100.00;62435.78;4990273;28;20226;-80
2023/01/24 00:28:41;;;;;;;7.50;4.65;;;;;;;4.14;100.00;62422.00;4991790;28;20204;-81
2023/01/24 00:31:08;;;;;;;5.30;4.57;;;;;;;4.07;100.00;62417.81;4991936;28;20266;-81
2023/01/24 00:33:35;;;;;;;5.20;4.50;;;;;;;4.16;100.00;62424.06;4994998;28;20200;-79
2023/01/24 00:36:03;;;;;;;4.60;4.20;;;;;;;4.12;100.00;62420.47;4953006;28;1123106;-79
2023/01/24 00:38:31;;;;;;;5.47;3.85;;;;;;;4.17;100.00;62427.63;4992664;28;20572;-79
2023/01/24 00:40:59;;;;;;;6.70;4.72;;;;;;;4.09;100.00;62422.41;4992286;28;20232;-80
2023/01/24 00:43:28;;;;;;;7.97;5.07;;;;;;;4.07;100.00;62422.38;4992713;28;20208;-78
2023/01/24 00:45:56;;;;;;;6.22;4.70;;;;;;;4.14;100.00;62422.50;4985803;28;20239;-79
2023/01/24 00:48:23;;;;;;;11.68;5.05;;;;;;;4.19;100.00;62427.16;4993682;28;20204;-80
2023/01/24 00:50:50;;;;;;;6.30;4.28;;;;;;;4.17;100.00;62428.13;4993142;28;20247;-80
2023/01/24 00:53:19;;;;;;;5.45;4.22;;;;;;;4.17;100.00;62422.56;4990201;28;20302;-81
2023/01/24 00:55:47;;;;;;;10.13;5.22;;;;;;;4.03;100.00;62411.22;4991135;28;20211;-81
2023/01/24 00:58:14;;;;;;;7.53;4.70;;;;;;;4.14;100.00;62424.53;4991643;28;20218;-80
2023/01/24 01:00:43;;;;;;;8.48;5.22;;;;;;;4.07;100.00;62415.31;5001315;28;20223;-80
2023/01/24 01:03:13;;;;;;;10.38;4.90;;;;;;;4.03;100.00;62413.22;4998134;28;20425;-80
2023/01/24 01:05:40;;;;;;;7.72;4.32;;;;;;;4.03;100.00;62408.16;4992042;28;20239;-79
2023/01/24 01:08:07;;;;;;;5.90;4.45;;;;;;;4.01;100.00;62409.16;4991326;28;20204;-80
2023/01/24 01:10:34;;;;;;;6.38;4.63;;;;;;;4.01;100.00;62411.16;4989953;28;20553;-79
2023/01/24 01:13:01;;;;;;;8.95;5.00;;;;;;;4.04;100.00;62414.75;4990096;28;20255;-77
2023/01/24 01:15:29;;;;;;;5.30;4.43;;;;;;;4.06;100.00;62416.81;4994195;28;20216;-80
2023/01/24 01:17:58;;;;;;;6.07;4.45;;;;;;;4.13;100.00;62424.00;4990227;28;20236;-80
2023/01/24 01:20:26;;;;;;;8.82;5.10;;;;;;;4.11;100.00;62418.91;4987450;28;20222;-82
2023/01/24 01:22:53;;;;;;;7.82;5.18;;;;;;;4.10;100.00;62415.38;4989686;28;20245;-80
2023/01/24 01:25:20;;;;;;;8.73;4.63;;;;;;;4.12;100.00;62420.47;5003733;28;20371;-78
2023/01/24 01:27:47;;;;;;;6.75;4.55;;;;;;;4.21;100.00;62434.75;5011786;28;20223;-78
2023/01/24 01:30:14;;;;;;;6.22;4.38;;;;;;;4.12;100.00;62417.94;5002136;28;20211;-79
2023/01/24 01:32:41;;;;;;;6.63;5.20;;;;;;;4.22;100.00;62430.75;5008182;28;20243;-79
2023/01/24 01:35:11;;;;;;;8.48;5.10;;;;;;;4.21;100.00;62432.22;5008654;28;20195;-79
2023/01/24 01:37:37;;;;;;;6.55;4.70;;;;;;;4.15;100.00;62423.56;5008268;28;20237;-80
2023/01/24 01:40:05;;;;;;;7.05;5.10;;;;;;;4.15;100.00;62426.06;5004464;28;20207;-79
2023/01/24 01:42:45;;;;;;;7.35;5.07;;;;;;;4.18;100.00;62429.16;4996373;28;20263;-81
2023/01/24 01:45:41;;;;;;;7.60;5.03;;;;;;;4.06;100.00;62416.28;4989063;28;20196;-79
2023/01/24 01:48:20;;;;;;;10.10;5.47;;;;;;;4.17;100.00;62427.63;4953258;28;20222;-80
2023/01/24 01:50:57;;;;;;;9.48;5.25;;;;;;;4.16;100.00;62427.09;4989391;28;20275;-79
2023/01/24 01:53:28;;;;;;;10.70;5.25;;;;;;;4.16;100.00;62426.59;4991272;28;20201;-79
2023/01/24 01:56:02;;;;;;;8.32;5.07;;;;;;;4.04;100.00;62414.25;4991274;28;20223;-79
2023/01/24 01:58:30;;;;;;;11.00;5.38;;;;;;;4.09;100.00;62419.88;4986644;28;20208;-78
2023/01/24 02:00:57;;;;;;;7.40;4.75;;;;;;;4.10;100.00;62417.88;4988065;28;20227;-80
2023/01/24 02:03:40;;;;;;;6.22;4.78;;;;;;;4.05;100.00;62415.25;4988684;28;20219;-79
2023/01/24 02:06:39;;;;;;;5.05;4.15;;;;;;;4.17;100.00;62430.66;4986375;28;20564;-81
2023/01/24 02:09:09;;;;;;;8.30;5.00;;;;;;;4.16;100.00;62424.06;4984312;28;20216;-80
2023/01/24 02:11:38;;;;;;;7.93;4.93;;;;;;;4.16;100.00;62424.06;5008557;28;20313;-80
2023/01/24 02:16:51;;;;;;;7.03;4.75;;;;;;;4.19;100.00;62430.19;4977066;28;20279;-81
2023/01/24 02:19:34;;;;;;;9.30;5.22;;;;;;;4.19;100.00;62430.19;4980893;28;20217;-80
2023/01/24 02:22:13;;;;;;;6.68;5.30;;;;;;;4.20;100.00;62425.66;4971401;28;20378;-79
2023/01/24 02:24:47;;;;;;;6.28;4.50;;;;;;;4.00;100.00;62410.13;4979602;28;20207;-78
2023/01/24 02:27:16;;;;;;;4.88;4.15;;;;;;;4.04;100.00;62419.28;5003179;28;20219;-81
2023/01/24 02:29:43;;;;;;;9.07;4.82;;;;;;;4.00;100.00;62412.66;5009543;28;20196;-78
2023/01/24 02:32:12;;;;;;;6.25;4.65;;;;;;;4.07;100.00;62412.78;5010578;28;20235;-81
2023/01/24 02:34:40;;;;;;;6.40;4.32;;;;;;;4.00;100.00;62410.13;4980775;28;20204;-78
2023/01/24 02:37:11;;;;;;;5.10;4.28;;;;;;;4.03;100.00;62408.16;4992234;28;20249;-81
2023/01/24 02:39:47;;;;;;;7.75;4.45;;;;;;;3.91;100.00;62403.91;4991378;28;20204;-80
2023/01/24 02:42:20;;;;;;;6.43;4.07;;;;;;;3.95;100.00;62404.97;4989382;28;20234;-81
2023/01/24 02:44:53;;;;;;;6.70;4.30;;;;;;;4.02;100.00;62415.19;4988927;28;20263;-81
2023/01/24 02:47:20;;;;;;;6.40;4.30;;;;;;;4.10;100.00;62415.38;4991140;28;20232;-80
2023/01/24 02:49:48;;;;;;;6.35;4.35;;;;;;;4.01;100.00;62408.63;4990336;28;20231;-81
2023/01/24 02:54:59;;;;;;;4.82;3.72;;;;;;;4.00;100.00;62410.66;4990155;28;20228;-79
2023/01/24 03:00:14;;;;;;;6.00;4.25;;;;;;;4.04;100.00;62414.25;4989319;28;20259;-80
2023/01/24 03:02:41;;;;;;;5.93;4.63;;;;;;;3.99;100.00;62406.56;4989156;28;20255;-77
2023/01/24 03:05:09;;;;;;;6.85;4.45;;;;;;;4.05;100.00;62415.25;4990956;28;20218;-79
2023/01/24 03:07:44;;;;;;;5.60;4.20;;;;;;;4.08;100.00;62413.31;4990896;28;20228;-79
2023/01/24 03:10:12;;;;;;;4.82;3.42;;;;;;;4.03;100.00;62410.69;4978480;28;20208;-80
2023/01/24 03:34:48;;;;;;;4.40;3.83;;;;;;;3.61;100.00;62367.50;4994926;28;20200;-79
2023/01/24 03:37:16;;;;;;;5.55;3.80;;;;;;;3.53;100.00;62362.81;4982661;28;20552;-80
2023/01/24 03:39:58;;;;;;;3.45;3.20;;;;;;;3.57;100.00;62365.91;4992239;28;20203;-79
2023/01/24 03:42:25;;;;;;;3.58;3.28;;;;;;;3.59;100.00;62367.97;4993031;28;20247;-81
2023/01/24 03:44:54;;;;;;;4.32;3.92;;;;;;;3.71;100.00;62377.78;4993101;28;20200;-80
2023/01/24 03:47:22;;;;;;;3.22;2.92;;;;;;;3.68;100.00;62377.19;4986723;28;20239;-80
2023/01/24 03:52:33;;;;;;;4.72;3.33;;;;;;;3.75;100.00;62382.41;4992027;28;20242;-80
2023/01/24 03:55:01;;;;;;;3.67;3.38;;;;;;;3.85;100.00;62397.22;4990672;28;20204;-79
2023/01/24 03:57:29;;;;;;;3.47;2.90;;;;;;;3.78;100.00;62384.97;4972784;28;20240;-78
2023/01/24 03:59:58;;;;;;;3.20;3.00;;;;;;;3.67;100.00;62378.69;4977105;28;20196;-79
2023/01/24 04:02:26;;;;;;;3.35;3.05;;;;;;;3.72;100.00;62386.88;4996188;28;20230;-80
2023/01/24 04:07:37;;;;;;;3.70;3.40;;;;;;;3.67;100.00;62376.69;4992330;28;20223;-78
2023/01/24 04:10:05;;;;;;;3.30;3.00;;;;;;;3.67;100.00;62368.63;4991693;28;20784;-81
2023/01/24 04:12:32;;;;;;;3.47;3.17;;;;;;;3.64;100.00;62373.63;4989010;28;20252;-80
2023/01/24 04:15:01;;;;;;;3.83;3.35;;;;;;;3.68;100.00;62379.72;4987283;28;20199;-79
2023/01/24 04:17:28;;;;;;;3.40;3.15;;;;;;;3.60;100.00;62371.50;4995245;28;20270;-78
2023/01/24 04:19:54;;;;;;;3.38;3.13;;;;;;;3.48;100.00;62354.63;4992461;28;20460;-79
2023/01/24 04:22:21;;;;;;;3.63;3.33;;;;;;;3.36;100.00;62345.34;4988593;28;20236;-80
2023/01/24 04:24:48;;;;;;;3.58;3.30;;;;;;;3.31;100.00;62337.66;4976509;28;20207;-80
2023/01/24 04:27:16;;;;;;;4.18;3.72;;;;;;;3.41;100.00;62350.47;4989616;28;20223;-78
2023/01/24 04:29:43;;;;;;;4.40;4.00;;;;;;;3.39;100.00;62345.91;4992743;28;20521;-80
2023/01/24 04:32:12;;;;;;;3.60;3.30;;;;;;;3.39;100.00;62342.88;4990254;28;20247;-79
2023/01/24 04:34:39;;;;;;;5.63;3.60;;;;;;;3.37;100.00;62346.34;4992980;28;20224;-78
2023/01/24 04:37:06;;;;;;;4.40;3.75;;;;;;;3.41;100.00;62350.47;4991854;28;20236;-80
2023/01/24 04:39:33;;;;;;;3.63;3.33;;;;;;;3.50;100.00;62362.22;4990152;28;20212;-78
2023/01/24 04:42:00;;;;;;;3.35;3.15;;;;;;;3.51;100.00;62357.72;4987505;28;20255;-80
2023/01/24 04:44:27;;;;;;;4.22;3.38;;;;;;;3.50;100.00;62359.72;4992214;28;20230;-78
2023/01/24 04:46:54;;;;;;;4.63;4.20;;;;;;;3.57;100.00;62363.38;4992091;28;20271;-79
2023/01/24 04:49:23;;;;;;;4.07;3.80;;;;;;;3.51;100.00;62357.72;4994416;28;20203;-80
2023/01/24 04:51:50;;;;;;;4.07;3.70;;;;;;;3.43;100.00;62349.50;4994011;28;20228;-80
2023/01/24 04:54:17;;;;;;;4.25;3.88;;;;;;;3.22;100.00;62328.44;5003360;28;20216;-81
2023/01/24 04:56:44;;;;;;;3.97;3.63;;;;;;;3.13;100.00;62319.16;4972343;28;20277;-80
2023/01/24 04:59:13;;;;;;;3.88;3.50;;;;;;;3.09;100.00;62322.09;4983021;28;20263;-79
2023/01/24 05:01:40;;;;;;;4.65;4.25;;;;;;;3.02;100.00;62307.84;4989038;28;20224;-80
2023/01/24 05:04:07;;;;;;;3.85;3.55;;;;;;;2.94;100.00;62296.63;4990278;28;20208;-79
2023/01/24 05:06:36;;;;;;;4.35;3.95;;;;;;;3.07;100.00;62320.53;4989025;28;20567;-80
2023/01/24 05:09:04;;;;;;;4.78;4.15;;;;;;;3.06;100.00;62311.97;4974524;28;20200;-80
2023/01/24 05:11:31;;;;;;;5.28;4.15;;;;;;;3.05;100.00;62310.97;4989423;28;20224;-79
2023/01/24 05:13:58;;;;;;;4.15;3.85;;;;;;;3.17;100.00;62325.81;4975193;28;20236;-79
2023/01/24 05:16:25;;;;;;;4.32;3.92;;;;;;;3.11;100.00;62319.63;4985597;28;20517;-80
2023/01/24 05:18:52;;;;;;;4.00;3.70;;;;;;;3.02;100.00;62312.88;4986356;28;20278;-80
2023/01/24 05:21:19;;;;;;;3.88;3.50;;;;;;;3.08;100.00;62313.53;4982764;28;20619;-79
2023/01/24 05:23:51;;;;;;;4.00;3.70;;;;;;;2.94;100.00;62301.63;4989850;28;20203;-79
2023/01/24 05:26:19;;;;;;;4.20;3.83;;;;;;;2.94;100.00;62306.66;4976695;28;20436;-79
2023/01/24 05:28:46;;;;;;;4.90;3.83;;;;;;;3.07;100.00;62315.00;4989111;28;20402;-78
2023/01/24 05:31:13;;;;;;;4.50;3.90;;;;;;;2.94;100.00;62304.16;5005309;28;20303;-78
2023/01/24 05:33:40;;;;;;;5.65;4.13;;;;;;;3.04;100.00;62311.91;5009396;28;20231;-80
2023/01/24 05:36:17;;;;;;;4.65;3.42;;;;;;;2.96;100.00;62301.69;4980092;28;20240;-79
2023/01/24 05:38:45;;;;;;;4.63;4.15;;;;;;;3.01;100.00;62309.34;4990362;28;20200;-79
2023/01/24 05:41:17;;;;;;;5.22;4.05;;;;;;;2.98;100.00;62308.28;4992175;28;20271;-80
2023/01/24 05:43:49;;;;;;;4.63;4.30;;;;;;;2.93;100.00;62301.13;4994176;28;20231;-80
2023/01/24 05:46:20;;;;;;;3.97;3.67;;;;;;;3.00;100.00;62305.31;5003803;28;20223;-79
2023/01/24 05:48:49;;;;;;;4.53;4.22;;;;;;;2.97;100.00;62305.25;5005885;28;20210;-78
2023/01/24 05:51:19;;;;;;;3.97;3.38;;;;;;;2.99;100.00;62306.78;4989117;28;20238;-81
2023/01/24 05:53:46;;;;;;;4.55;4.07;;;;;;;3.03;100.00;62308.91;4985690;28;20540;-81
2023/01/24 05:56:16;;;;;;;4.78;4.32;;;;;;;2.94;100.00;62296.63;4991943;28;20251;-79
2023/01/24 05:58:46;;;;;;;3.88;3.63;;;;;;;3.00;100.00;62308.31;4989920;28;20243;-80
2023/01/24 06:01:16;;;;;;;5.13;4.57;;;;;;;2.83;100.00;62290.34;4990343;28;20424;-79
2023/01/24 06:03:46;;;;;;;3.75;3.47;;;;;;;2.81;100.00;62288.28;4990629;28;20223;-78
2023/01/24 06:06:16;;;;;;;4.18;3.78;;;;;;;2.87;100.00;62292.44;4991906;28;20223;-80
2023/01/24 06:08:44;;;;;;;3.92;3.60;;;;;;;2.92;100.00;62302.09;4994828;28;20192;-79
2023/01/24 06:11:16;;;;;;;4.40;4.00;;;;;;;2.93;100.00;62303.66;4990209;28;20231;-80
2023/01/24 06:13:46;;;;;;;4.53;4.13;;;;;;;3.00;100.00;62305.31;4993342;28;20228;-79
2023/01/24 06:16:15;;;;;;;4.00;3.70;;;;;;;3.08;100.00;62321.59;4990604;28;20310;-80
2023/01/24 06:18:43;;;;;;;7.20;6.43;;;;;;;3.27;100.00;62333.03;4990190;28;20204;-79
2023/01/24 06:21:23;;;;;;;4.57;4.28;;;;;;;3.19;100.00;62324.84;4984477;28;20231;-80
2023/01/24 06:23:51;;;;;;;5.07;4.60;;;;;;;3.06;100.00;62314.50;4978717;28;20197;-81
2023/01/24 06:26:20;;;;;;;4.72;4.32;;;;;;;2.96;100.00;62303.69;4982016;28;20250;-80
2023/01/24 06:28:48;;;;;;;4.28;3.97;;;;;;;2.89;100.00;62297.03;4977137;28;20209;-79
2023/01/24 06:31:31;;;;;;;5.10;4.35;;;;;;;2.70;100.00;62277.50;4981734;28;20427;-80
2023/01/24 06:34:34;;;;;;;4.38;4.00;;;;;;;2.55;100.00;62261.56;4986976;28;20239;-80
2023/01/24 06:37:12;;;;;;;4.63;4.03;;;;;;;2.75;100.00;62282.13;4981849;28;20300;-79
2023/01/24 06:39:40;;;;;;;6.13;5.53;;;;;;;2.60;100.00;62269.22;4977080;28;20430;-79
2023/01/24 06:42:10;;;;;;;5.53;5.03;;;;;;;2.50;100.00;62256.44;4980294;28;20235;-80
2023/01/24 06:44:37;;;;;;;4.93;4.40;;;;;;;2.37;100.00;62243.59;4973642;28;20219;-78
2023/01/24 06:47:04;;;;;;;5.47;4.57;;;;;;;2.37;100.00;62248.63;4978896;28;20239;-80
2023/01/24 06:49:31;;;;;;;5.65;4.70;;;;;;;2.33;100.00;62239.47;4983755;28;20412;-78
2023/01/24 06:51:58;;;;;;;5.47;4.72;;;;;;;2.25;100.00;62231.78;4984637;28;20224;-78
2023/01/24 06:54:25;;;;;;;6.03;4.88;;;;;;;2.20;100.00;62226.66;4987141;28;20262;-79
2023/01/24 06:56:52;;;;;;;5.43;4.90;;;;;;;2.19;100.00;62223.09;4979149;28;20444;-79
2023/01/24 06:59:22;;;;;;;5.43;4.93;;;;;;;2.27;100.00;62233.31;4983910;28;20505;-79
2023/01/24 07:01:50;;;;;;;6.38;5.55;;;;;;;2.23;100.00;62224.72;4973715;28;20227;-80
2023/01/24 07:04:17;;;;;;;9.05;5.63;;;;;;;2.29;100.00;62235.38;4978289;28;20239;-80
2023/01/24 07:06:44;;;;;;;6.32;5.53;;;;;;;2.11;100.00;62216.88;4981725;28;20220;-81
2023/01/24 07:09:11;;;;;;;6.07;5.40;;;;;;;2.12;100.00;62215.41;4984907;28;20211;-80
2023/01/24 07:11:38;;;;;;;6.22;4.88;;;;;;;2.05;100.00;62210.75;4983050;28;20287;-78
2023/01/24 07:14:05;;;;;;;6.63;5.22;;;;;;;2.04;100.00;62207.19;4976153;28;20599;-79
2023/01/24 07:16:33;;;;;;;5.53;4.75;;;;;;;2.02;100.00;62205.66;4978446;28;20243;-78
2023/01/24 07:19:01;;;;;;;6.93;5.38;;;;;;;2.15;100.00;62221.53;4973355;28;20212;-80
2023/01/24 07:21:29;;;;;;;6.15;5.47;;;;;;;2.23;100.00;62226.69;4991019;28;20287;-81
2023/01/24 07:23:58;;;;;;;5.25;4.75;;;;;;;2.38;100.00;62244.63;4984557;28;20226;-79
2023/01/24 07:26:26;;;;;;;6.40;5.63;;;;;;;2.49;100.00;62255.41;4980591;28;20244;-82
2023/01/24 07:28:53;;;;;;;7.07;5.53;;;;;;;2.59;100.00;62266.19;4982961;28;20227;-81
2023/01/24 07:31:20;;;;;;;7.03;6.03;;;;;;;2.60;100.00;62264.72;4986403;28;20315;-82
2023/01/24 07:33:48;;;;;;;10.35;7.30;;;;;;;2.65;100.00;62274.34;4980180;28;20229;-82
2023/01/24 07:36:17;;;;;;;6.82;6.00;;;;;;;2.70;100.00;62280.00;4983236;28;20251;-82
2023/01/24 07:38:44;;;;;;;7.18;6.15;;;;;;;2.78;100.00;62283.19;4989316;28;20239;-81
2023/01/24 07:41:11;;;;;;;9.57;7.20;;;;;;;2.59;100.00;62263.19;4982721;28;20224;-81
2023/01/24 07:43:39;;;;;;;16.75;8.48;;;;;;;2.71;100.00;62276.00;4986275;28;20534;-80
2023/01/24 07:46:06;;;;;;;9.90;6.97;;;;;;;2.84;100.00;62289.38;4982540;28;20233;-80
2023/01/24 07:48:33;;;;;;;6.38;5.28;;;;;;;2.83;100.00;62290.84;4987534;28;20208;-81
2023/01/24 07:51:03;;;;;;;5.25;4.38;;;;;;;2.91;100.00;62298.56;4984321;28;20219;-79
2023/01/24 07:53:30;;;;;;;6.20;5.53;;;;;;;2.81;100.00;62288.81;4982866;28;20292;-80
2023/01/24 07:56:03;;;;;;;5.30;4.80;;;;;;;2.62;100.00;62269.28;4978954;28;20260;-80
2023/01/24 07:58:33;;;;;;;5.95;5.45;;;;;;;2.54;100.00;62258.53;4977463;28;20213;-83
2023/01/24 08:01:00;;;;;;;9.13;6.70;;;;;;;2.57;100.00;62266.66;4982402;28;20256;-81
2023/01/24 08:03:26;;;;;;;6.57;5.82;;;;;;;2.51;100.00;62254.94;4989107;28;20203;-81
2023/01/24 08:05:54;;;;;;;8.20;6.15;;;;;;;2.50;100.00;62256.97;4986415;28;20200;-81
2023/01/24 08:08:22;;;;;;;8.23;6.25;;;;;;;2.53;100.00;62257.00;4984592;28;20216;-81
2023/01/24 08:10:49;;;;;;;6.88;6.18;;;;;;;2.59;100.00;62263.19;4977018;28;20207;-80
2023/01/24 08:13:16;;;;;;;8.05;6.60;;;;;;;2.65;100.00;62271.84;4984535;28;20487;-80
2023/01/24 08:15:43;;;;;;;10.95;7.53;;;;;;;2.67;100.00;62274.41;4991187;28;20218;-81
2023/01/24 08:18:10;;;;;;;10.00;8.07;;;;;;;2.58;100.00;62262.66;4990253;28;20513;-83
2023/01/24 08:20:37;;;;;;;10.30;7.50;;;;;;;2.54;100.00;62263.56;4975598;28;20213;-81
2023/01/24 08:23:04;;;;;;;9.27;7.72;;;;;;;2.53;100.00;62259.50;4990167;28;20243;-83
2023/01/24 08:25:34;;;;;;;10.77;7.63;;;;;;;2.61;100.00;62265.72;4985478;28;20211;-82
2023/01/24 08:28:01;;;;;;;9.60;7.80;;;;;;;2.71;100.00;62275.50;4990706;28;20422;-80
2023/01/24 08:30:30;;;;;;;8.88;7.07;;;;;;;2.62;100.00;62271.81;4992683;28;20204;-81
2023/01/24 08:33:01;;;;;;;8.38;6.85;;;;;;;2.76;100.00;62283.66;4990544;28;20263;-81
2023/01/24 08:35:28;;;;;;;11.32;7.85;;;;;;;2.92;100.00;62297.06;4992833;28;20210;-82
2023/01/24 08:37:55;;;;;;;7.18;6.43;;;;;;;2.91;100.00;62296.03;4990502;28;20236;-81
2023/01/24 08:40:28;;;;;;;7.93;7.15;;;;;;;2.85;100.00;62292.91;4990136;28;20520;-81
2023/01/24 08:43:01;;;;;;;11.10;7.75;;;;;;;2.93;100.00;62301.13;4990462;28;20232;-80
2023/01/24 08:45:27;;;;;;;9.65;7.47;;;;;;;3.10;100.00;62318.09;4992513;28;20292;-80
2023/01/24 08:47:56;;;;;;;8.65;7.03;;;;;;;3.22;100.00;62335.97;4991855;28;20224;-79
2023/01/24 08:50:24;;;;;;;9.55;6.35;;;;;;;2.97;100.00;62302.72;4988244;28;20235;-81
2023/01/24 08:52:55;;;;;;;6.07;5.53;;;;;;;2.82;100.00;62289.81;4989801;28;20208;-81
2023/01/24 08:55:22;;;;;;;6.63;5.38;;;;;;;2.88;100.00;62298.00;4986388;28;20211;-80
2023/01/24 08:57:49;;;;;;;7.90;6.50;;;;;;;3.17;100.00;62325.81;4985949;28;20223;-80
2023/01/24 09:00:18;;;;;;;5.88;4.93;;;;;;;2.91;100.00;62303.59;4985032;28;20212;-81
2023/01/24 09:02:45;;;;;;;7.60;6.38;;;;;;;2.91;100.00;62296.03;4973220;28;20216;-80
2023/01/24 09:05:12;;;;;;;7.60;6.45;;;;;;;2.93;100.00;62298.63;4970424;28;20211;-80
2023/01/24 09:07:41;;;;;;;9.18;7.22;;;;;;;2.78;100.00;62285.72;4969798;29;20483;-81
2023/01/24 09:10:09;;;;;;;7.78;6.18;;;;;;;2.97;100.00;62302.72;4970673;29;20213;-80
2023/01/24 09:12:39;;;;;;;9.55;5.95;;;;;;;2.95;100.00;62297.66;4970795;29;20415;-83
2023/01/24 09:15:07;;;;;;;6.25;5.65;;;;;;;2.77;100.00;62284.16;4977650;28;20232;-80
2023/01/24 09:17:36;;;;;;;7.95;5.78;;;;;;;2.72;100.00;62284.06;4989589;28;20236;-81
2023/01/24 09:20:05;;;;;;;8.07;6.55;;;;;;;3.01;100.00;62306.31;4989683;28;20247;-82
2023/01/24 09:22:34;;;;;;;6.80;6.00;;;;;;;2.97;100.00;62305.25;4990635;28;20239;-83
2023/01/24 09:25:03;;;;;;;7.03;6.10;;;;;;;3.05;100.00;62310.97;4989458;28;20318;-81
2023/01/24 09:27:30;;;;;;;10.38;7.53;;;;;;;2.88;100.00;62292.97;4991475;28;20247;-79
2023/01/24 09:29:57;;;;;;;7.75;6.30;;;;;;;3.05;100.00;62312.94;4993270;28;20201;-82
2023/01/24 09:32:24;;;;;;;8.23;6.03;;;;;;;2.96;100.00;62299.19;4989449;28;20245;-80
2023/01/24 09:34:52;;;;;;;8.52;5.97;;;;;;;3.16;100.00;62327.28;4989660;28;20250;-81
2023/01/24 09:37:21;;;;;;;8.07;6.80;;;;;;;3.01;100.00;62308.84;4991401;28;20232;-81
2023/01/24 09:40:00;;;;;;;9.60;6.25;;;;;;;2.69;100.00;62275.97;4995880;28;20224;-80
2023/01/24 09:42:37;;;;;;;7.43;6.03;;;;;;;3.09;100.00;62314.56;4997106;28;20226;-82
2023/01/24 09:45:18;;;;;;;7.45;5.43;;;;;;;3.04;100.00;62307.41;4990494;28;20404;-82
2023/01/24 09:47:50;;;;;;;5.93;5.28;;;;;;;2.90;100.00;62295.03;4990298;28;20556;-81
2023/01/24 09:50:23;;;;;;;9.13;5.03;;;;;;;2.74;100.00;62281.09;4989554;28;20200;-80
2023/01/24 09:52:55;;;;;;;5.10;4.60;;;;;;;2.90;100.00;62295.53;4993227;28;20221;-81
2023/01/24 09:55:26;;;;;;;9.82;5.97;;;;;;;2.83;100.00;62287.84;4990584;28;20287;-82
2023/01/24 09:57:58;;;;;;;7.65;3.88;;;;;;;2.80;100.00;62285.25;4989209;28;20539;-82
2023/01/24 10:00:28;;;;;;;6.13;5.00;;;;;;;2.87;100.00;62292.44;4988688;28;20208;-81
2023/01/24 10:02:57;;;;;;;6.35;4.70;;;;;;;3.01;100.00;62308.84;4989291;28;20224;-82
2023/01/24 10:05:43;;;;;;;4.50;4.10;;;;;;;3.14;100.00;62320.19;4991973;28;20203;-82
2023/01/24 10:08:24;;;;;;;4.63;4.20;;;;;;;3.08;100.00;62319.06;4993783;28;20204;-82
2023/01/24 10:10:56;;;;;;;4.22;3.83;;;;;;;2.80;100.00;62282.22;4992394;28;20567;-81
2023/01/24 10:13:58;;;;;;;6.15;4.68;;;;;;;2.82;100.00;62289.31;4988748;28;20216;-82
2023/01/24 10:17:01;;;;;;;5.07;4.22;;;;;;;3.07;100.00;62320.03;4983977;28;20263;-83
2023/01/24 10:19:49;;;;;;;6.60;4.38;;;;;;;2.84;100.00;62288.84;4989352;28;20239;-82
2023/01/24 10:22:32;;;;;;;6.70;5.68;;;;;;;2.96;100.00;62303.69;4981227;28;20224;-81
2023/01/24 10:25:04;;;;;;;6.53;5.28;;;;;;;3.02;100.00;62310.38;4989609;28;20192;-81
2023/01/24 10:27:37;;;;;;;4.38;3.92;;;;;;;3.05;100.00;62308.44;4975924;28;20232;-81
2023/01/24 10:30:15;;;;;;;3.42;3.20;;;;;;;3.10;100.00;62313.59;4988194;28;20339;-81
2023/01/24 10:32:45;;;;;;;3.55;3.28;;;;;;;3.35;100.00;62341.25;4981085;28;20220;-83
2023/01/24 10:35:15;;;;;;;3.92;3.60;;;;;;;3.48;100.00;62354.63;4981009;28;20327;-81
2023/01/24 10:37:55;;;;;;;4.82;4.43;;;;;;;3.23;100.00;62328.94;4991788;28;20283;-82
2023/01/24 10:40:25;;;;;;;4.22;3.80;;;;;;;3.16;100.00;62321.72;4993892;28;20200;-82
2023/01/24 10:42:52;;;;;;;3.80;3.50;;;;;;;3.17;100.00;62325.28;4985541;28;20220;-83
2023/01/24 10:45:41;;;;;;;4.15;3.75;;;;;;;2.91;100.00;62296.03;4986192;28;20208;-82
2023/01/24 10:48:20;;;;;;;4.45;4.05;;;;;;;2.79;100.00;62289.25;4984960;28;20267;-80
2023/01/24 10:50:47;;;;;;;6.53;4.45;;;;;;;3.01;100.00;62308.84;4979950;28;20388;-82
2023/01/24 10:53:24;;;;;;;3.58;3.35;;;;;;;3.14;100.00;62322.72;4983234;28;20204;-80
2023/01/24 10:55:59;;;;;;;4.03;3.50;;;;;;;3.04;100.00;62309.91;4991079;28;20409;-81
2023/01/24 10:58:28;;;;;;;3.40;3.20;;;;;;;2.91;100.00;62303.59;4992770;28;20192;-81
2023/01/24 11:00:59;;;;;;;4.30;3.97;;;;;;;3.00;100.00;62310.84;4990711;28;20224;-82
2023/01/24 11:03:29;;;;;;;4.65;4.20;;;;;;;3.08;100.00;62313.53;4994160;28;20208;-82
2023/01/24 11:05:58;;;;;;;4.63;4.13;;;;;;;2.97;100.00;62302.22;4994147;28;20227;-81
2023/01/24 11:08:32;;;;;;;3.80;3.30;;;;;;;2.99;100.00;62304.78;4991404;28;20286;-80
2023/01/24 11:11:00;;;;;;;3.25;3.03;;;;;;;3.15;100.00;62320.72;4991098;28;20231;-82
2023/01/24 11:13:33;;;;;;;3.90;3.55;;;;;;;3.10;100.00;62316.09;4992755;28;20239;-82
2023/01/24 11:16:03;;;;;;;3.28;3.08;;;;;;;2.95;100.00;62300.66;4992084;28;20224;-82
2023/01/24 11:18:31;;;;;;;2.63;2.40;;;;;;;2.95;100.00;62297.66;4974116;29;20204;-82
2023/01/24 11:21:11;;;;;;;2.78;2.55;;;;;;;3.05;100.00;62315.47;4972034;29;20287;-82
2023/01/24 11:23:40;;;;;;;3.42;2.95;;;;;;;3.13;100.00;62319.16;4972325;29;20260;-81
2023/01/24 11:26:24;;;;;;;3.05;2.85;;;;;;;2.96;100.00;62301.19;4974103;28;20239;-82
2023/01/24 11:29:00;;;;;;;3.13;2.83;;;;;;;2.97;100.00;62305.25;4974454;28;20209;-79
2023/01/24 11:31:38;;;;;;;3.42;3.13;;;;;;;2.82;100.00;62289.31;4973627;28;20248;-81
2023/01/24 11:34:41;;;;;;;3.45;3.15;;;;;;;2.97;100.00;62305.25;4981783;28;20250;-81
2023/01/24 11:37:23;;;;;;;3.55;3.25;;;;;;;3.14;100.00;62322.72;4978571;28;20246;-81
2023/01/24 11:40:05;;;;;;;3.10;2.90;;;;;;;3.22;100.00;62330.44;4988755;28;20280;-82
2023/01/24 11:42:40;;;;;;;6.57;3.15;;;;;;;3.27;100.00;62340.59;4994372;28;20231;-81
2023/01/24 11:45:33;;;;;;;6.07;2.72;;;;;;;3.26;100.00;62335.03;4993965;28;20203;-81
2023/01/24 11:48:10;;;;;;;3.33;3.10;;;;;;;3.21;100.00;62329.91;4984326;28;20458;-82
2023/01/24 11:50:52;;;;;;;3.38;3.08;;;;;;;3.20;100.00;62328.88;4974953;29;20232;-80
2023/01/24 11:53:49;;;;;;;7.15;3.03;;;;;;;3.45;100.00;62354.56;4983495;28;20211;-80
2023/01/24 11:56:28;;;;;;;3.53;3.22;;;;;;;3.40;100.00;62344.41;4993418;28;20259;-81
2023/01/24 11:59:25;;;;;;;3.20;2.88;;;;;;;3.60;100.00;62369.50;4993152;28;20452;-80
2023/01/24 12:02:01;;;;;;;4.10;3.28;;;;;;;3.42;100.00;62350.97;4994047;28;20224;-82
2023/01/24 12:05:26;;;;;;;9.40;3.15;;;;;;;3.59;100.00;62365.94;4994048;28;20252;-79
2023/01/24 12:08:00;;;;;;;3.20;3.00;;;;;;;3.76;100.00;62385.97;4917053;29;20230;-81
2023/01/24 12:10:36;;;;;;;2.53;2.40;;;;;;;3.67;100.00;62379.22;4914763;29;20225;-80
2023/01/24 12:13:19;;;;;;;3.38;3.08;;;;;;;3.64;100.00;62370.59;4972792;28;20207;-84
2023/01/24 12:16:00;;;;;;;2.67;2.40;;;;;;;3.74;100.00;62383.91;4993376;28;20239;-82
2023/01/24 12:18:48;;;;;;;3.20;3.00;;;;;;;3.61;100.00;62367.50;4992462;28;20200;-82
2023/01/24 12:21:15;;;;;;;2.65;2.45;;;;;;;3.53;100.00;62362.28;4988946;28;20232;-82
2023/01/24 12:23:55;;;;;;;2.85;2.60;;;;;;;3.52;100.00;62359.25;4994211;28;20223;-83
2023/01/24 12:26:27;;;;;;;2.58;2.38;;;;;;;3.54;100.00;62363.31;4993583;28;20248;-81
2023/01/24 12:29:01;;;;;;;5.50;3.00;;;;;;;3.31;100.00;62342.69;4992633;28;20250;-82